CFG3TP EDDM-LEPA
Flight info
| Callsign | CFG3TP |
|---|---|
| Flight time | 2h 0m |
| Altitude | 37000 |
| Route | TURBU7S TURBU Y107 TOBSO DCT BAKOR DCT SUMIR DCT MISPO DCT PIDAD DCT TALEP DCT RARQU DCT BALEN UT250 RIXOT |
| Aircraft | A320/M-SDE1E3FGHIJ1LORVWXYZ/LB1 |
Departure
| Time | 2026-05-05 08:27 |
|---|---|
| Airport | Munich Airport (EDDM) |
Arrival
| Time | 2026-05-05 10:28 |
|---|---|
| Airport | Palma de Mallorca Airport (LEPA) |
| Time | Latitude | Longitude | Altitude | Speed | Heading |
|---|---|---|---|---|---|
| 2026-05-05 07:48 | 48.35418 | 11.77664 | 1473 ft | 0 kts | 263° |
| 2026-05-05 08:12 | 48.35418 | 11.77665 | 1485 ft | 2 kts | 263° |
| 2026-05-05 08:13 | 48.35422 | 11.77702 | 1485 ft | 4 kts | 255° |
| 2026-05-05 08:13 | 48.35431 | 11.77739 | 1472 ft | 4 kts | 236° |
| 2026-05-05 08:13 | 48.35440 | 11.77756 | 1479 ft | 0 kts | 211° |
| 2026-05-05 08:16 | 48.35435 | 11.77751 | 1478 ft | 3 kts | 210° |
| 2026-05-05 08:16 | 48.35394 | 11.77744 | 1485 ft | 9 kts | 180° |
| 2026-05-05 08:17 | 48.35311 | 11.77762 | 1476 ft | 14 kts | 171° |
| 2026-05-05 08:17 | 48.35212 | 11.77780 | 1475 ft | 15 kts | 173° |
| 2026-05-05 08:17 | 48.35102 | 11.77799 | 1480 ft | 17 kts | 174° |
| 2026-05-05 08:17 | 48.34990 | 11.77818 | 1481 ft | 15 kts | 173° |
| 2026-05-05 08:18 | 48.34908 | 11.77832 | 1485 ft | 7 kts | 174° |
| 2026-05-05 08:18 | 48.34874 | 11.77849 | 1478 ft | 4 kts | 156° |
| 2026-05-05 08:18 | 48.34872 | 11.77850 | 1477 ft | 0 kts | 158° |
| 2026-05-05 08:21 | 48.34793 | 11.77897 | 1512 ft | 0 kts | 158° |
| 2026-05-05 08:21 | 48.34718 | 11.77894 | 1485 ft | 0 kts | 158° |
| 2026-05-05 08:21 | 48.34710 | 11.77896 | 1485 ft | 4 kts | 165° |
| 2026-05-05 08:21 | 48.34689 | 11.77908 | 1478 ft | 4 kts | 153° |
| 2026-05-05 08:22 | 48.34668 | 11.77993 | 1485 ft | 15 kts | 84° |
| 2026-05-05 08:22 | 48.34681 | 11.78157 | 1485 ft | 15 kts | 83° |
| 2026-05-05 08:22 | 48.34694 | 11.78305 | 1483 ft | 13 kts | 82° |
| 2026-05-05 08:22 | 48.34705 | 11.78434 | 1485 ft | 12 kts | 83° |
| 2026-05-05 08:23 | 48.34715 | 11.78570 | 1485 ft | 18 kts | 84° |
| 2026-05-05 08:23 | 48.34731 | 11.78772 | 1485 ft | 19 kts | 83° |
| 2026-05-05 08:23 | 48.34745 | 11.78967 | 1485 ft | 18 kts | 84° |
| 2026-05-05 08:23 | 48.34759 | 11.79156 | 1485 ft | 18 kts | 83° |
| 2026-05-05 08:24 | 48.34773 | 11.79333 | 1480 ft | 16 kts | 84° |
| 2026-05-05 08:24 | 48.34784 | 11.79489 | 1480 ft | 14 kts | 83° |
| 2026-05-05 08:24 | 48.34795 | 11.79625 | 1485 ft | 12 kts | 83° |
| 2026-05-05 08:24 | 48.34805 | 11.79745 | 1485 ft | 12 kts | 83° |
| 2026-05-05 08:25 | 48.34817 | 11.79907 | 1485 ft | 16 kts | 84° |
| 2026-05-05 08:25 | 48.34829 | 11.80060 | 1480 ft | 14 kts | 83° |
| 2026-05-05 08:25 | 48.34801 | 11.80178 | 1474 ft | 12 kts | 129° |
| 2026-05-05 08:25 | 48.34718 | 11.80246 | 1485 ft | 16 kts | 174° |
| 2026-05-05 08:26 | 48.34602 | 11.80264 | 1482 ft | 18 kts | 173° |
| 2026-05-05 08:26 | 48.34480 | 11.80276 | 1483 ft | 16 kts | 202° |
| 2026-05-05 08:26 | 48.34463 | 11.80158 | 1476 ft | 21 kts | 263° |
| 2026-05-05 08:26 | 48.34414 | 11.79574 | 1482 ft | 90 kts | 263° |
| 2026-05-05 08:27 | 48.34318 | 11.78341 | 1480 ft | 145 kts | 263° |
| 2026-05-05 08:27 | 48.34192 | 11.76639 | 1646 ft | 175 kts | 263° |
| 2026-05-05 08:27 | 48.34061 | 11.74810 | 2378 ft | 175 kts | 263° |
| 2026-05-05 08:27 | 48.33928 | 11.73005 | 2932 ft | 185 kts | 262° |
| 2026-05-05 08:28 | 48.33365 | 11.71167 | 3179 ft | 208 kts | 223° |
| 2026-05-05 08:28 | 48.32017 | 11.70280 | 3581 ft | 222 kts | 188° |
| 2026-05-05 08:28 | 48.30482 | 11.70189 | 4448 ft | 220 kts | 179° |
| 2026-05-05 08:28 | 48.28994 | 11.70485 | 5214 ft | 223 kts | 160° |
| 2026-05-05 08:29 | 48.27610 | 11.71714 | 5751 ft | 241 kts | 142° |
| 2026-05-05 08:29 | 48.26219 | 11.73342 | 6165 ft | 264 kts | 145° |
| 2026-05-05 08:29 | 48.24690 | 11.74968 | 6833 ft | 273 kts | 146° |
| 2026-05-05 08:30 | 48.21508 | 11.78193 | 8512 ft | 279 kts | 147° |
| 2026-05-05 08:30 | 48.19894 | 11.79807 | 9347 ft | 283 kts | 147° |
| 2026-05-05 08:30 | 48.18223 | 11.81403 | 10131 ft | 285 kts | 154° |
| 2026-05-05 08:30 | 48.16373 | 11.82525 | 10594 ft | 301 kts | 162° |
| 2026-05-05 08:31 | 48.14306 | 11.83561 | 10827 ft | 324 kts | 162° |
| 2026-05-05 08:31 | 48.12113 | 11.84641 | 11339 ft | 335 kts | 162° |
| 2026-05-05 08:31 | 48.09879 | 11.85737 | 12039 ft | 339 kts | 162° |
| 2026-05-05 08:31 | 48.07625 | 11.86843 | 12773 ft | 343 kts | 162° |
| 2026-05-05 08:32 | 48.05351 | 11.87965 | 13521 ft | 346 kts | 162° |
| 2026-05-05 08:32 | 48.03049 | 11.89106 | 14182 ft | 349 kts | 162° |
| 2026-05-05 08:32 | 48.00744 | 11.90247 | 14815 ft | 352 kts | 162° |
| 2026-05-05 08:32 | 47.99165 | 11.91028 | 15260 ft | 354 kts | 163° |
| 2026-05-05 08:33 | 47.96849 | 11.92173 | 15877 ft | 357 kts | 162° |
| 2026-05-05 08:33 | 47.94477 | 11.93345 | 16508 ft | 360 kts | 163° |
| 2026-05-05 08:33 | 47.92057 | 11.94413 | 17115 ft | 363 kts | 169° |
| 2026-05-05 08:33 | 47.89538 | 11.94842 | 17723 ft | 365 kts | 180° |
| 2026-05-05 08:34 | 47.86982 | 11.94796 | 18315 ft | 368 kts | 181° |
| 2026-05-05 08:34 | 47.84403 | 11.94741 | 18841 ft | 371 kts | 181° |
| 2026-05-05 08:34 | 47.81804 | 11.94689 | 19378 ft | 374 kts | 181° |
| 2026-05-05 08:34 | 47.79189 | 11.94639 | 19915 ft | 377 kts | 181° |
| 2026-05-05 08:35 | 47.76550 | 11.94590 | 20447 ft | 381 kts | 181° |
| 2026-05-05 08:35 | 47.73888 | 11.94541 | 20986 ft | 384 kts | 182° |
| 2026-05-05 08:35 | 47.71205 | 11.94490 | 21512 ft | 387 kts | 182° |
| 2026-05-05 08:35 | 47.68534 | 11.94443 | 22016 ft | 390 kts | 182° |
| 2026-05-05 08:36 | 47.65812 | 11.94401 | 22517 ft | 393 kts | 182° |
| 2026-05-05 08:36 | 47.63053 | 11.94356 | 23004 ft | 397 kts | 182° |
| 2026-05-05 08:36 | 47.60274 | 11.94308 | 23472 ft | 400 kts | 182° |
| 2026-05-05 08:36 | 47.57468 | 11.94259 | 23860 ft | 403 kts | 182° |
| 2026-05-05 08:37 | 47.54682 | 11.94209 | 24269 ft | 406 kts | 182° |
| 2026-05-05 08:37 | 47.51841 | 11.94158 | 24673 ft | 408 kts | 182° |
| 2026-05-05 08:37 | 47.48989 | 11.94109 | 25099 ft | 410 kts | 182° |
| 2026-05-05 08:37 | 47.46129 | 11.94059 | 25502 ft | 411 kts | 182° |
| 2026-05-05 08:38 | 47.43261 | 11.93975 | 25891 ft | 412 kts | 186° |
| 2026-05-05 08:38 | 47.40445 | 11.93481 | 26275 ft | 413 kts | 189° |
| 2026-05-05 08:38 | 47.37591 | 11.92906 | 26650 ft | 414 kts | 189° |
| 2026-05-05 08:38 | 47.34732 | 11.92333 | 27044 ft | 415 kts | 189° |
| 2026-05-05 08:39 | 47.31857 | 11.91758 | 27427 ft | 417 kts | 189° |
| 2026-05-05 08:39 | 47.28980 | 11.91184 | 27809 ft | 418 kts | 189° |
| 2026-05-05 08:39 | 47.26082 | 11.90609 | 28204 ft | 420 kts | 189° |
| 2026-05-05 08:39 | 47.23172 | 11.90030 | 28563 ft | 421 kts | 189° |
| 2026-05-05 08:40 | 47.20295 | 11.89458 | 28884 ft | 423 kts | 189° |
| 2026-05-05 08:40 | 47.17373 | 11.88880 | 29262 ft | 423 kts | 190° |
| 2026-05-05 08:40 | 47.14461 | 11.88303 | 29673 ft | 423 kts | 189° |
| 2026-05-05 08:40 | 47.11536 | 11.87721 | 29992 ft | 424 kts | 189° |
| 2026-05-05 08:41 | 47.08601 | 11.87136 | 30251 ft | 425 kts | 189° |
| 2026-05-05 08:41 | 47.05665 | 11.86551 | 30510 ft | 426 kts | 189° |
| 2026-05-05 08:41 | 47.02762 | 11.85976 | 30751 ft | 427 kts | 189° |
| 2026-05-05 08:41 | 46.99778 | 11.85309 | 30998 ft | 427 kts | 192° |
| 2026-05-05 08:42 | 46.96892 | 11.84484 | 31280 ft | 427 kts | 193° |
| 2026-05-05 08:42 | 46.93999 | 11.83542 | 31562 ft | 426 kts | 194° |
| 2026-05-05 08:42 | 46.91109 | 11.82549 | 31830 ft | 426 kts | 194° |
| 2026-05-05 08:42 | 46.88215 | 11.81550 | 32126 ft | 426 kts | 194° |
| 2026-05-05 08:43 | 46.85332 | 11.80576 | 32420 ft | 426 kts | 194° |
| 2026-05-05 08:43 | 46.82441 | 11.79630 | 32739 ft | 425 kts | 194° |
| 2026-05-05 08:43 | 46.79558 | 11.78711 | 33034 ft | 425 kts | 193° |
| 2026-05-05 08:43 | 46.76663 | 11.77804 | 33289 ft | 424 kts | 193° |
| 2026-05-05 08:44 | 46.73774 | 11.76906 | 33570 ft | 425 kts | 193° |
| 2026-05-05 08:44 | 46.70886 | 11.76007 | 33866 ft | 424 kts | 193° |
| 2026-05-05 08:44 | 46.67999 | 11.75103 | 34131 ft | 423 kts | 193° |
| 2026-05-05 08:44 | 46.65128 | 11.74203 | 34405 ft | 423 kts | 193° |
| 2026-05-05 08:45 | 46.62297 | 11.73082 | 34664 ft | 420 kts | 201° |
| 2026-05-05 08:45 | 46.59646 | 11.71326 | 34877 ft | 419 kts | 210° |
| 2026-05-05 08:45 | 46.57221 | 11.68972 | 35120 ft | 418 kts | 217° |
| 2026-05-05 08:45 | 46.54880 | 11.66463 | 35368 ft | 418 kts | 216° |
| 2026-05-05 08:46 | 46.52531 | 11.63968 | 35592 ft | 417 kts | 216° |
| 2026-05-05 08:46 | 46.50183 | 11.61491 | 35817 ft | 417 kts | 216° |
| 2026-05-05 08:46 | 46.47832 | 11.59016 | 36043 ft | 416 kts | 216° |
| 2026-05-05 08:46 | 46.45492 | 11.56553 | 36265 ft | 415 kts | 216° |
| 2026-05-05 08:47 | 46.43179 | 11.54120 | 36477 ft | 415 kts | 216° |
| 2026-05-05 08:47 | 46.40846 | 11.51669 | 36685 ft | 414 kts | 216° |
| 2026-05-05 08:47 | 46.38511 | 11.49215 | 36898 ft | 414 kts | 217° |
| 2026-05-05 08:47 | 46.36189 | 11.46774 | 37001 ft | 414 kts | 217° |
| 2026-05-05 08:48 | 46.33854 | 11.44323 | 37009 ft | 413 kts | 217° |
| 2026-05-05 08:48 | 46.29222 | 11.39464 | 37009 ft | 412 kts | 217° |
| 2026-05-05 08:49 | 46.24600 | 11.34624 | 37016 ft | 411 kts | 217° |
| 2026-05-05 08:49 | 46.19987 | 11.29729 | 37016 ft | 411 kts | 217° |
| 2026-05-05 08:50 | 46.15402 | 11.24839 | 37061 ft | 411 kts | 217° |
| 2026-05-05 08:50 | 46.10778 | 11.19933 | 37054 ft | 411 kts | 217° |
| 2026-05-05 08:51 | 46.06191 | 11.15093 | 37068 ft | 411 kts | 217° |
| 2026-05-05 08:51 | 46.01567 | 11.10221 | 37048 ft | 411 kts | 217° |
| 2026-05-05 08:52 | 45.96939 | 11.05355 | 37043 ft | 411 kts | 217° |
| 2026-05-05 08:52 | 45.92314 | 11.00494 | 37039 ft | 412 kts | 217° |
| 2026-05-05 08:53 | 45.87713 | 10.95670 | 37039 ft | 412 kts | 217° |
| 2026-05-05 08:53 | 45.83083 | 10.90828 | 37021 ft | 412 kts | 217° |
| 2026-05-05 08:54 | 45.78443 | 10.85996 | 37022 ft | 412 kts | 217° |
| 2026-05-05 08:54 | 45.73800 | 10.81166 | 37025 ft | 412 kts | 217° |
| 2026-05-05 08:55 | 45.69162 | 10.76342 | 37016 ft | 412 kts | 217° |
| 2026-05-05 08:55 | 45.64521 | 10.71523 | 37008 ft | 412 kts | 217° |
| 2026-05-05 08:56 | 45.59915 | 10.66742 | 37008 ft | 411 kts | 217° |
| 2026-05-05 08:56 | 45.55278 | 10.61959 | 37005 ft | 411 kts | 217° |
| 2026-05-05 08:57 | 45.50643 | 10.57193 | 37002 ft | 410 kts | 217° |
| 2026-05-05 08:57 | 45.46013 | 10.52434 | 37021 ft | 410 kts | 217° |
| 2026-05-05 08:58 | 45.41388 | 10.47686 | 37022 ft | 409 kts | 217° |
| 2026-05-05 08:58 | 45.36768 | 10.42955 | 37020 ft | 408 kts | 217° |
| 2026-05-05 08:59 | 45.32160 | 10.38250 | 37014 ft | 407 kts | 217° |
| 2026-05-05 08:59 | 45.27586 | 10.33579 | 36995 ft | 407 kts | 217° |
| 2026-05-05 09:00 | 45.22987 | 10.28896 | 36991 ft | 406 kts | 217° |
| 2026-05-05 09:00 | 45.18382 | 10.24225 | 36993 ft | 406 kts | 217° |
| 2026-05-05 09:01 | 45.13783 | 10.19571 | 36997 ft | 406 kts | 217° |
| 2026-05-05 09:01 | 45.09212 | 10.14948 | 36995 ft | 407 kts | 217° |
| 2026-05-05 09:02 | 45.04602 | 10.10291 | 36988 ft | 406 kts | 217° |
| 2026-05-05 09:02 | 44.99996 | 10.05663 | 36990 ft | 405 kts | 217° |
| 2026-05-05 09:03 | 44.95401 | 10.01034 | 36972 ft | 405 kts | 217° |
| 2026-05-05 09:03 | 44.90846 | 9.96436 | 36965 ft | 405 kts | 218° |
| 2026-05-05 09:04 | 44.86252 | 9.91817 | 36986 ft | 405 kts | 218° |
| 2026-05-05 09:04 | 44.81661 | 9.87197 | 36985 ft | 404 kts | 218° |
| 2026-05-05 09:05 | 44.77108 | 9.82642 | 36989 ft | 404 kts | 218° |
| 2026-05-05 09:05 | 44.72522 | 9.78062 | 36988 ft | 403 kts | 218° |
| 2026-05-05 09:06 | 44.67937 | 9.73494 | 36988 ft | 403 kts | 218° |
| 2026-05-05 09:06 | 44.63358 | 9.68949 | 36986 ft | 403 kts | 218° |
| 2026-05-05 09:07 | 44.58803 | 9.64440 | 36979 ft | 403 kts | 218° |
| 2026-05-05 09:07 | 44.54219 | 9.59888 | 36970 ft | 403 kts | 218° |
| 2026-05-05 09:08 | 44.49638 | 9.55346 | 36979 ft | 403 kts | 218° |
| 2026-05-05 09:08 | 44.45050 | 9.50819 | 36974 ft | 403 kts | 218° |
| 2026-05-05 09:09 | 44.40455 | 9.46306 | 36971 ft | 403 kts | 218° |
| 2026-05-05 09:09 | 44.35891 | 9.41822 | 36983 ft | 403 kts | 218° |
| 2026-05-05 09:10 | 44.31303 | 9.37319 | 36981 ft | 402 kts | 218° |
| 2026-05-05 09:10 | 44.26716 | 9.32829 | 36974 ft | 402 kts | 218° |
| 2026-05-05 09:11 | 44.22161 | 9.28378 | 36955 ft | 402 kts | 218° |
| 2026-05-05 09:11 | 44.17575 | 9.23904 | 36960 ft | 401 kts | 218° |
| 2026-05-05 09:12 | 44.13020 | 9.19465 | 36962 ft | 401 kts | 218° |
| 2026-05-05 09:12 | 44.08439 | 9.15006 | 36963 ft | 401 kts | 218° |
| 2026-05-05 09:13 | 44.03856 | 9.10563 | 36944 ft | 401 kts | 218° |
| 2026-05-05 09:13 | 43.99278 | 9.06142 | 36981 ft | 400 kts | 218° |
| 2026-05-05 09:14 | 43.94697 | 9.01719 | 36980 ft | 399 kts | 218° |
| 2026-05-05 09:14 | 43.90165 | 8.97347 | 36978 ft | 399 kts | 218° |
| 2026-05-05 09:15 | 43.86371 | 8.93695 | 36961 ft | 398 kts | 218° |
| 2026-05-05 09:15 | 43.81810 | 8.89315 | 36966 ft | 398 kts | 218° |
| 2026-05-05 09:16 | 43.77262 | 8.84956 | 36966 ft | 397 kts | 218° |
| 2026-05-05 09:16 | 43.72712 | 8.80593 | 36967 ft | 397 kts | 218° |
| 2026-05-05 09:17 | 43.68191 | 8.76273 | 36946 ft | 397 kts | 218° |
| 2026-05-05 09:17 | 43.63386 | 8.72467 | 36950 ft | 404 kts | 204° |
| 2026-05-05 09:17 | 43.60646 | 8.71475 | 36963 ft | 411 kts | 193° |
| 2026-05-05 09:18 | 43.57770 | 8.71205 | 36967 ft | 417 kts | 186° |
| 2026-05-05 09:18 | 43.52065 | 8.70587 | 36963 ft | 401 kts | 206° |
| 2026-05-05 09:18 | 43.49627 | 8.68820 | 36954 ft | 394 kts | 217° |
| 2026-05-05 09:19 | 43.47281 | 8.66839 | 36946 ft | 396 kts | 213° |
| 2026-05-05 09:19 | 43.42512 | 8.63103 | 36947 ft | 397 kts | 213° |
| 2026-05-05 09:20 | 43.37702 | 8.59333 | 36953 ft | 398 kts | 213° |
| 2026-05-05 09:20 | 43.33038 | 8.55279 | 36955 ft | 395 kts | 221° |
| 2026-05-05 09:21 | 43.28921 | 8.50308 | 36948 ft | 393 kts | 226° |
| 2026-05-05 09:21 | 43.25003 | 8.45129 | 36953 ft | 393 kts | 225° |
| 2026-05-05 09:22 | 43.20988 | 8.40024 | 36957 ft | 394 kts | 224° |
| 2026-05-05 09:22 | 43.16898 | 8.35015 | 36959 ft | 394 kts | 224° |
| 2026-05-05 09:23 | 43.12789 | 8.30034 | 36957 ft | 394 kts | 223° |
| 2026-05-05 09:23 | 43.08716 | 8.25079 | 36979 ft | 394 kts | 223° |
| 2026-05-05 09:24 | 43.04619 | 8.20091 | 36977 ft | 394 kts | 223° |
| 2026-05-05 09:24 | 43.00523 | 8.15112 | 36977 ft | 394 kts | 223° |
| 2026-05-05 09:25 | 42.96454 | 8.10167 | 36972 ft | 394 kts | 223° |
| 2026-05-05 09:25 | 42.92355 | 8.05195 | 36973 ft | 393 kts | 223° |
| 2026-05-05 09:26 | 42.88256 | 8.00235 | 36966 ft | 394 kts | 223° |
| 2026-05-05 09:26 | 42.84149 | 7.95279 | 36992 ft | 394 kts | 223° |
| 2026-05-05 09:27 | 42.80045 | 7.90327 | 36996 ft | 393 kts | 223° |
| 2026-05-05 09:27 | 42.75966 | 7.85422 | 36995 ft | 393 kts | 223° |
| 2026-05-05 09:28 | 42.71866 | 7.80506 | 36980 ft | 393 kts | 223° |
| 2026-05-05 09:28 | 42.67758 | 7.75578 | 36982 ft | 392 kts | 223° |
| 2026-05-05 09:29 | 42.63687 | 7.70695 | 36981 ft | 392 kts | 223° |
| 2026-05-05 09:29 | 42.59585 | 7.65797 | 36991 ft | 392 kts | 223° |
| 2026-05-05 09:30 | 42.55482 | 7.60910 | 36984 ft | 392 kts | 223° |
| 2026-05-05 09:30 | 42.51377 | 7.56028 | 37010 ft | 392 kts | 223° |
| 2026-05-05 09:31 | 42.47270 | 7.51146 | 37006 ft | 392 kts | 223° |
| 2026-05-05 09:31 | 42.43188 | 7.46261 | 37001 ft | 390 kts | 227° |
| 2026-05-05 09:31 | 42.41714 | 7.43221 | 36979 ft | 388 kts | 249° |
| 2026-05-05 09:32 | 42.41293 | 7.39623 | 36968 ft | 394 kts | 271° |
| 2026-05-05 09:32 | 42.42003 | 7.36007 | 36956 ft | 407 kts | 292° |
| 2026-05-05 09:32 | 42.43773 | 7.32938 | 36947 ft | 425 kts | 314° |
| 2026-05-05 09:32 | 42.46377 | 7.30911 | 36940 ft | 443 kts | 336° |
| 2026-05-05 09:33 | 42.49474 | 7.30270 | 36980 ft | 463 kts | 358° |
| 2026-05-05 09:33 | 42.52682 | 7.31150 | 36974 ft | 480 kts | 19° |
| 2026-05-05 09:33 | 42.55527 | 7.33461 | 36973 ft | 490 kts | 41° |
| 2026-05-05 09:33 | 42.57763 | 7.36965 | 36979 ft | 493 kts | 58° |
| 2026-05-05 09:34 | 42.59333 | 7.41106 | 36969 ft | 492 kts | 73° |
| 2026-05-05 09:34 | 42.60114 | 7.45598 | 36973 ft | 487 kts | 89° |
| 2026-05-05 09:34 | 42.60039 | 7.50132 | 36973 ft | 478 kts | 105° |
| 2026-05-05 09:34 | 42.59152 | 7.54425 | 36973 ft | 467 kts | 120° |
| 2026-05-05 09:35 | 42.57582 | 7.58207 | 36969 ft | 455 kts | 134° |
| 2026-05-05 09:35 | 42.52980 | 7.63648 | 36946 ft | 430 kts | 160° |
| 2026-05-05 09:35 | 42.50244 | 7.65135 | 36949 ft | 419 kts | 172° |
| 2026-05-05 09:36 | 42.47416 | 7.65782 | 36947 ft | 409 kts | 184° |
| 2026-05-05 09:36 | 42.44640 | 7.65624 | 36947 ft | 401 kts | 194° |
| 2026-05-05 09:36 | 42.41955 | 7.64708 | 36950 ft | 395 kts | 205° |
| 2026-05-05 09:36 | 42.39498 | 7.63114 | 36950 ft | 390 kts | 215° |
| 2026-05-05 09:37 | 42.35563 | 7.58199 | 36952 ft | 386 kts | 234° |
| 2026-05-05 09:37 | 42.32354 | 7.52351 | 36957 ft | 387 kts | 234° |
| 2026-05-05 09:38 | 42.29125 | 7.46513 | 36966 ft | 388 kts | 233° |
| 2026-05-05 09:38 | 42.25888 | 7.40678 | 36972 ft | 388 kts | 233° |
| 2026-05-05 09:39 | 42.22668 | 7.34868 | 36977 ft | 389 kts | 233° |
| 2026-05-05 09:39 | 42.19419 | 7.29014 | 36989 ft | 389 kts | 233° |
| 2026-05-05 09:40 | 42.16165 | 7.23163 | 36975 ft | 389 kts | 234° |
| 2026-05-05 09:40 | 42.12933 | 7.17362 | 36990 ft | 389 kts | 234° |
| 2026-05-05 09:41 | 42.09673 | 7.11529 | 36992 ft | 389 kts | 233° |
| 2026-05-05 09:41 | 42.06414 | 7.05703 | 36999 ft | 389 kts | 233° |
| 2026-05-05 09:42 | 42.03152 | 6.99890 | 37001 ft | 389 kts | 233° |
| 2026-05-05 09:42 | 41.99359 | 6.94700 | 36999 ft | 390 kts | 224° |
| 2026-05-05 09:43 | 41.95345 | 6.89782 | 36991 ft | 390 kts | 225° |
| 2026-05-05 09:43 | 41.91365 | 6.84905 | 36998 ft | 389 kts | 225° |
| 2026-05-05 09:44 | 41.87365 | 6.80014 | 37014 ft | 388 kts | 225° |
| 2026-05-05 09:44 | 41.83372 | 6.75150 | 37009 ft | 387 kts | 225° |
| 2026-05-05 09:45 | 41.79383 | 6.70284 | 37007 ft | 387 kts | 225° |
| 2026-05-05 09:45 | 41.75429 | 6.65472 | 36993 ft | 385 kts | 225° |
| 2026-05-05 09:46 | 41.71458 | 6.60655 | 37000 ft | 385 kts | 225° |
| 2026-05-05 09:46 | 41.67492 | 6.55843 | 37001 ft | 384 kts | 225° |
| 2026-05-05 09:47 | 41.63526 | 6.51032 | 37001 ft | 384 kts | 225° |
| 2026-05-05 09:47 | 41.59578 | 6.46268 | 37022 ft | 384 kts | 225° |
| 2026-05-05 09:48 | 41.55609 | 6.41496 | 37012 ft | 383 kts | 225° |
| 2026-05-05 09:48 | 41.51651 | 6.36733 | 37007 ft | 382 kts | 225° |
| 2026-05-05 09:49 | 41.47695 | 6.31979 | 37011 ft | 382 kts | 225° |
| 2026-05-05 09:49 | 41.43755 | 6.27236 | 37009 ft | 381 kts | 225° |
| 2026-05-05 09:50 | 41.39811 | 6.22499 | 37004 ft | 381 kts | 225° |
| 2026-05-05 09:50 | 41.35889 | 6.17812 | 36990 ft | 381 kts | 225° |
| 2026-05-05 09:51 | 41.31938 | 6.13108 | 36995 ft | 381 kts | 225° |
| 2026-05-05 09:51 | 41.27996 | 6.08410 | 37021 ft | 380 kts | 225° |
| 2026-05-05 09:52 | 41.24073 | 6.03734 | 37020 ft | 380 kts | 225° |
| 2026-05-05 09:52 | 41.20130 | 5.99049 | 37016 ft | 379 kts | 225° |
| 2026-05-05 09:53 | 41.16189 | 5.94379 | 36990 ft | 379 kts | 225° |
| 2026-05-05 09:53 | 41.12254 | 5.89727 | 36991 ft | 379 kts | 225° |
| 2026-05-05 09:54 | 41.08313 | 5.85076 | 36999 ft | 379 kts | 225° |
| 2026-05-05 09:54 | 41.04366 | 5.80426 | 37002 ft | 379 kts | 225° |
| 2026-05-05 09:55 | 41.00449 | 5.75806 | 37002 ft | 379 kts | 225° |
| 2026-05-05 09:55 | 40.96500 | 5.71171 | 36983 ft | 379 kts | 225° |
| 2026-05-05 09:56 | 40.93050 | 5.65998 | 37000 ft | 374 kts | 236° |
| 2026-05-05 09:56 | 40.90041 | 5.60358 | 37002 ft | 374 kts | 236° |
| 2026-05-05 09:57 | 40.87031 | 5.54729 | 37004 ft | 374 kts | 236° |
| 2026-05-05 09:57 | 40.84019 | 5.49119 | 37005 ft | 374 kts | 236° |
| 2026-05-05 09:58 | 40.81018 | 5.43546 | 37004 ft | 374 kts | 236° |
| 2026-05-05 09:58 | 40.78503 | 5.38883 | 36996 ft | 374 kts | 236° |
| 2026-05-05 09:59 | 40.75482 | 5.33281 | 36986 ft | 374 kts | 237° |
| 2026-05-05 09:59 | 40.71965 | 5.26765 | 37004 ft | 374 kts | 236° |
| 2026-05-05 10:00 | 40.69430 | 5.22094 | 37006 ft | 374 kts | 236° |
| 2026-05-05 10:00 | 40.66424 | 5.16550 | 37004 ft | 374 kts | 236° |
| 2026-05-05 10:01 | 40.63401 | 5.10973 | 37003 ft | 374 kts | 236° |
| 2026-05-05 10:01 | 40.60369 | 5.05403 | 37005 ft | 374 kts | 236° |
| 2026-05-05 10:02 | 40.57332 | 4.99849 | 37001 ft | 374 kts | 236° |
| 2026-05-05 10:02 | 40.54314 | 4.94333 | 37015 ft | 374 kts | 236° |
| 2026-05-05 10:03 | 40.51272 | 4.88780 | 37010 ft | 373 kts | 236° |
| 2026-05-05 10:03 | 40.48232 | 4.83228 | 37002 ft | 373 kts | 236° |
| 2026-05-05 10:04 | 40.45191 | 4.77701 | 36848 ft | 373 kts | 236° |
| 2026-05-05 10:04 | 40.43670 | 4.74942 | 36583 ft | 373 kts | 236° |
| 2026-05-05 10:04 | 40.42150 | 4.72189 | 36310 ft | 372 kts | 236° |
| 2026-05-05 10:05 | 40.40631 | 4.69435 | 36044 ft | 372 kts | 236° |
| 2026-05-05 10:05 | 40.39146 | 4.66685 | 35307 ft | 374 kts | 239° |
| 2026-05-05 10:05 | 40.37862 | 4.63711 | 34452 ft | 376 kts | 242° |
| 2026-05-05 10:05 | 40.36592 | 4.60689 | 33649 ft | 377 kts | 242° |
| 2026-05-05 10:06 | 40.35338 | 4.57703 | 33098 ft | 371 kts | 242° |
| 2026-05-05 10:06 | 40.34100 | 4.54760 | 32520 ft | 367 kts | 241° |
| 2026-05-05 10:06 | 40.32866 | 4.51840 | 31942 ft | 368 kts | 241° |
| 2026-05-05 10:06 | 40.31605 | 4.48864 | 31354 ft | 374 kts | 241° |
| 2026-05-05 10:07 | 40.30348 | 4.45907 | 30780 ft | 369 kts | 241° |
| 2026-05-05 10:07 | 40.29098 | 4.42968 | 30211 ft | 366 kts | 241° |
| 2026-05-05 10:07 | 40.27847 | 4.40022 | 29586 ft | 376 kts | 241° |
| 2026-05-05 10:07 | 40.26583 | 4.37046 | 29005 ft | 371 kts | 241° |
| 2026-05-05 10:08 | 40.25334 | 4.34110 | 28438 ft | 365 kts | 241° |
| 2026-05-05 10:08 | 40.24118 | 4.31255 | 27898 ft | 360 kts | 241° |
| 2026-05-05 10:08 | 40.22911 | 4.28422 | 27366 ft | 355 kts | 241° |
| 2026-05-05 10:08 | 40.21715 | 4.25621 | 26847 ft | 350 kts | 241° |
| 2026-05-05 10:09 | 40.20536 | 4.22861 | 26350 ft | 345 kts | 241° |
| 2026-05-05 10:09 | 40.19368 | 4.20136 | 25865 ft | 342 kts | 241° |
| 2026-05-05 10:09 | 40.18207 | 4.17432 | 25403 ft | 338 kts | 240° |
| 2026-05-05 10:09 | 40.17058 | 4.14757 | 24923 ft | 335 kts | 240° |
| 2026-05-05 10:10 | 40.15938 | 4.12145 | 24474 ft | 332 kts | 240° |
| 2026-05-05 10:10 | 40.14806 | 4.09497 | 24012 ft | 329 kts | 240° |
| 2026-05-05 10:10 | 40.13706 | 4.06925 | 23552 ft | 328 kts | 240° |
| 2026-05-05 10:10 | 40.12593 | 4.04329 | 23031 ft | 325 kts | 240° |
| 2026-05-05 10:11 | 40.11490 | 4.01762 | 22559 ft | 322 kts | 240° |
| 2026-05-05 10:11 | 40.10399 | 3.99230 | 22093 ft | 319 kts | 240° |
| 2026-05-05 10:11 | 40.09316 | 3.96719 | 21629 ft | 316 kts | 240° |
| 2026-05-05 10:11 | 40.08237 | 3.94217 | 21162 ft | 314 kts | 240° |
| 2026-05-05 10:12 | 40.07168 | 3.91737 | 20693 ft | 312 kts | 240° |
| 2026-05-05 10:12 | 40.06105 | 3.89272 | 20225 ft | 311 kts | 240° |
| 2026-05-05 10:12 | 40.05043 | 3.86819 | 19764 ft | 310 kts | 240° |
| 2026-05-05 10:12 | 40.03985 | 3.84381 | 19298 ft | 309 kts | 240° |
| 2026-05-05 10:13 | 40.02929 | 3.81942 | 18852 ft | 308 kts | 240° |
| 2026-05-05 10:13 | 40.01884 | 3.79536 | 18407 ft | 308 kts | 241° |
| 2026-05-05 10:13 | 40.00825 | 3.77094 | 17900 ft | 308 kts | 241° |
| 2026-05-05 10:13 | 39.99776 | 3.74670 | 17441 ft | 306 kts | 240° |
| 2026-05-05 10:14 | 39.98734 | 3.72265 | 16998 ft | 304 kts | 240° |
| 2026-05-05 10:14 | 39.97692 | 3.69867 | 16565 ft | 302 kts | 240° |
| 2026-05-05 10:14 | 39.96656 | 3.67486 | 16121 ft | 301 kts | 240° |
| 2026-05-05 10:14 | 39.95629 | 3.65120 | 15716 ft | 300 kts | 240° |
| 2026-05-05 10:15 | 39.94605 | 3.62759 | 15299 ft | 299 kts | 240° |
| 2026-05-05 10:15 | 39.93578 | 3.60401 | 14872 ft | 298 kts | 240° |
| 2026-05-05 10:15 | 39.92563 | 3.58087 | 14457 ft | 297 kts | 240° |
| 2026-05-05 10:15 | 39.91524 | 3.55720 | 14034 ft | 297 kts | 240° |
| 2026-05-05 10:16 | 39.90499 | 3.53378 | 13592 ft | 297 kts | 240° |
| 2026-05-05 10:16 | 39.89487 | 3.51065 | 13159 ft | 296 kts | 240° |
| 2026-05-05 10:16 | 39.88467 | 3.48735 | 12719 ft | 295 kts | 240° |
| 2026-05-05 10:16 | 39.87450 | 3.46412 | 12151 ft | 295 kts | 239° |
| 2026-05-05 10:17 | 39.86435 | 3.44089 | 11349 ft | 294 kts | 239° |
| 2026-05-05 10:17 | 39.85416 | 3.41761 | 10344 ft | 298 kts | 239° |
| 2026-05-05 10:17 | 39.84405 | 3.39454 | 9833 ft | 288 kts | 238° |
| 2026-05-05 10:17 | 39.83445 | 3.37265 | 9482 ft | 272 kts | 238° |
| 2026-05-05 10:18 | 39.82514 | 3.35151 | 9303 ft | 267 kts | 238° |
| 2026-05-05 10:18 | 39.81614 | 3.33106 | 9160 ft | 254 kts | 238° |
| 2026-05-05 10:18 | 39.80739 | 3.31113 | 8689 ft | 257 kts | 238° |
| 2026-05-05 10:18 | 39.79847 | 3.29086 | 8262 ft | 258 kts | 239° |
| 2026-05-05 10:19 | 39.78958 | 3.27067 | 7885 ft | 256 kts | 239° |
| 2026-05-05 10:19 | 39.78075 | 3.25065 | 7498 ft | 255 kts | 239° |
| 2026-05-05 10:19 | 39.77197 | 3.23076 | 7157 ft | 252 kts | 239° |
| 2026-05-05 10:19 | 39.76329 | 3.21111 | 6805 ft | 250 kts | 239° |
| 2026-05-05 10:20 | 39.75475 | 3.19180 | 6437 ft | 241 kts | 238° |
| 2026-05-05 10:20 | 39.74661 | 3.17338 | 6089 ft | 229 kts | 238° |
| 2026-05-05 10:20 | 39.73894 | 3.15605 | 5768 ft | 219 kts | 238° |
| 2026-05-05 10:20 | 39.73134 | 3.13891 | 5452 ft | 218 kts | 238° |
| 2026-05-05 10:21 | 39.72378 | 3.12186 | 5134 ft | 216 kts | 238° |
| 2026-05-05 10:21 | 39.71629 | 3.10497 | 4838 ft | 215 kts | 238° |
| 2026-05-05 10:21 | 39.70884 | 3.08817 | 4505 ft | 214 kts | 238° |
| 2026-05-05 10:21 | 39.70126 | 3.07176 | 4314 ft | 211 kts | 237° |
| 2026-05-05 10:22 | 39.69350 | 3.05541 | 4150 ft | 213 kts | 237° |
| 2026-05-05 10:22 | 39.68575 | 3.03894 | 3978 ft | 213 kts | 237° |
| 2026-05-05 10:22 | 39.67807 | 3.02255 | 3807 ft | 213 kts | 236° |
| 2026-05-05 10:22 | 39.67038 | 3.00613 | 3624 ft | 212 kts | 237° |
| 2026-05-05 10:23 | 39.66281 | 2.98998 | 3463 ft | 212 kts | 236° |
| 2026-05-05 10:23 | 39.65529 | 2.97392 | 3288 ft | 204 kts | 236° |
| 2026-05-05 10:23 | 39.64804 | 2.95846 | 3126 ft | 197 kts | 237° |
| 2026-05-05 10:23 | 39.64101 | 2.94350 | 2955 ft | 193 kts | 237° |
| 2026-05-05 10:24 | 39.63411 | 2.92880 | 2873 ft | 190 kts | 236° |
| 2026-05-05 10:24 | 39.62725 | 2.91421 | 2687 ft | 187 kts | 236° |
| 2026-05-05 10:24 | 39.62051 | 2.89987 | 2481 ft | 184 kts | 236° |
| 2026-05-05 10:24 | 39.61387 | 2.88576 | 2217 ft | 181 kts | 237° |
| 2026-05-05 10:25 | 39.60741 | 2.87202 | 1973 ft | 175 kts | 236° |
| 2026-05-05 10:25 | 39.60126 | 2.85894 | 1743 ft | 165 kts | 237° |
| 2026-05-05 10:25 | 39.59552 | 2.84675 | 1526 ft | 154 kts | 236° |
| 2026-05-05 10:25 | 39.59029 | 2.83564 | 1362 ft | 139 kts | 237° |
| 2026-05-05 10:26 | 39.58539 | 2.82525 | 1170 ft | 135 kts | 236° |
| 2026-05-05 10:26 | 39.58067 | 2.81508 | 1012 ft | 127 kts | 235° |
| 2026-05-05 10:26 | 39.57593 | 2.80527 | 884 ft | 130 kts | 235° |
| 2026-05-05 10:26 | 39.57109 | 2.79534 | 778 ft | 128 kts | 237° |
| 2026-05-05 10:27 | 39.56667 | 2.78545 | 585 ft | 128 kts | 237° |
| 2026-05-05 10:27 | 39.56185 | 2.77539 | 415 ft | 132 kts | 237° |
| 2026-05-05 10:27 | 39.55696 | 2.76497 | 211 ft | 136 kts | 239° |
| 2026-05-05 10:27 | 39.55207 | 2.75447 | 54 ft | 131 kts | 237° |
| 2026-05-05 10:28 | 39.54782 | 2.74547 | 31 ft | 99 kts | 238° |
| 2026-05-05 10:28 | 39.54513 | 2.73988 | 30 ft | 48 kts | 238° |
| 2026-05-05 10:28 | 39.54427 | 2.73809 | 30 ft | 0 kts | 239° |
| 2026-05-05 10:28 | 39.54399 | 2.73747 | 30 ft | 14 kts | 239° |
| 2026-05-05 10:29 | 39.54332 | 2.73605 | 30 ft | 22 kts | 238° |
| 2026-05-05 10:29 | 39.54266 | 2.73434 | 30 ft | 14 kts | 270° |
| 2026-05-05 10:29 | 39.54279 | 2.73314 | 30 ft | 14 kts | 276° |
| 2026-05-05 10:29 | 39.54290 | 2.73212 | 30 ft | 10 kts | 283° |
| 2026-05-05 10:30 | 39.54301 | 2.73168 | 30 ft | 0 kts | 297° |
| 2026-05-05 10:30 | 39.54314 | 2.73159 | 30 ft | 9 kts | 341° |
| 2026-05-05 10:30 | 39.54377 | 2.73249 | 30 ft | 20 kts | 58° |
| 2026-05-05 10:30 | 39.54460 | 2.73435 | 30 ft | 24 kts | 59° |
| 2026-05-05 10:31 | 39.54540 | 2.73606 | 30 ft | 15 kts | 55° |
| 2026-05-05 10:31 | 39.54611 | 2.73626 | 30 ft | 7 kts | 332° |
| 2026-05-05 10:31 | 39.54626 | 2.73615 | 30 ft | 2 kts | 332° |
| 2026-05-05 10:31 | 39.54636 | 2.73618 | 30 ft | 3 kts | 29° |
| 2026-05-05 10:32 | 39.54670 | 2.73695 | 30 ft | 15 kts | 58° |
| 2026-05-05 10:32 | 39.54725 | 2.73813 | 30 ft | 15 kts | 58° |
| 2026-05-05 10:32 | 39.54779 | 2.73923 | 30 ft | 14 kts | 57° |
| 2026-05-05 10:32 | 39.54842 | 2.74001 | 30 ft | 13 kts | 2° |
| 2026-05-05 10:33 | 39.54912 | 2.73948 | 30 ft | 11 kts | 328° |
| 2026-05-05 10:33 | 39.54973 | 2.73898 | 30 ft | 10 kts | 328° |
| 2026-05-05 10:33 | 39.55052 | 2.73837 | 30 ft | 18 kts | 331° |
| 2026-05-05 10:33 | 39.55158 | 2.73751 | 30 ft | 17 kts | 318° |
| 2026-05-05 10:34 | 39.55159 | 2.73666 | 30 ft | 9 kts | 281° |
| 2026-05-05 10:34 | 39.55122 | 2.73613 | 30 ft | 9 kts | 183° |
| 2026-05-05 10:34 | 39.55106 | 2.73615 | 30 ft | 0 kts | 173° |